createdAt,value
2023-04-02T00:01:27.754Z,1.70
2023-04-02T00:04:16.204Z,1.90
2023-04-02T00:06:47.140Z,1.40
2023-04-02T00:09:32.130Z,1.30
2023-04-02T00:12:15.377Z,1.58
2023-04-02T00:14:48.523Z,2.20
2023-04-02T00:17:17.782Z,1.85
2023-04-02T00:19:51.140Z,2.10
2023-04-02T00:22:20.598Z,1.70
2023-04-02T00:24:52.829Z,2.25
2023-04-02T00:27:20.930Z,1.90
2023-04-02T00:29:50.160Z,2.40
2023-04-02T00:32:23.302Z,2.63
2023-04-02T00:34:51.574Z,2.50
2023-04-02T00:37:28.024Z,2.50
2023-04-02T00:40:01.649Z,3.25
2023-04-02T00:42:31.581Z,2.97
2023-04-02T00:44:59.673Z,2.50
2023-04-02T00:47:34.237Z,4.28
2023-04-02T00:50:08.834Z,3.33
2023-04-02T00:52:37.113Z,3.25
2023-04-02T00:55:10.424Z,2.75
2023-04-02T00:57:38.611Z,2.15
2023-04-02T01:00:20.663Z,2.20
2023-04-02T01:03:22.905Z,2.20
2023-04-02T01:06:01.614Z,1.98
2023-04-02T01:08:41.136Z,1.90
2023-04-02T01:11:19.395Z,3.03
2023-04-02T01:13:58.049Z,3.58
2023-04-02T01:16:36.447Z,2.45
2023-04-02T01:19:18.296Z,2.40
2023-04-02T01:21:58.793Z,3.17
2023-04-02T01:24:32.451Z,3.03
2023-04-02T01:27:02.275Z,2.33
2023-04-02T01:29:34.080Z,1.95
2023-04-02T01:32:05.212Z,3.42
2023-04-02T01:34:33.717Z,1.60
2023-04-02T01:37:23.042Z,1.48
2023-04-02T01:40:05.670Z,2.72
2023-04-02T01:42:41.934Z,1.30
2023-04-02T01:45:14.749Z,1.80
2023-04-02T01:50:23.589Z,2.80
2023-04-02T01:52:53.468Z,1.50
2023-04-02T01:55:31.199Z,2.25
2023-04-02T01:58:01.351Z,2.42
2023-04-02T02:00:32.961Z,1.60
2023-04-02T02:03:03.426Z,2.22
2023-04-02T02:05:31.344Z,1.95
2023-04-02T02:08:01.341Z,2.97
2023-04-02T02:10:35.167Z,2.25
2023-04-02T02:13:03.317Z,2.10
2023-04-02T02:15:34.895Z,2.05
2023-04-02T02:18:06.599Z,2.45
2023-04-02T02:20:36.094Z,2.38
2023-04-02T02:23:05.459Z,2.35
2023-04-02T02:25:34.989Z,4.50
2023-04-02T02:28:09.335Z,3.33
2023-04-02T02:30:42.908Z,3.20
2023-04-02T02:33:17.319Z,6.53
2023-04-02T02:35:51.205Z,2.42
2023-04-02T02:38:43.737Z,2.65
2023-04-02T02:41:19.657Z,2.85
2023-04-02T02:43:57.435Z,1.98
2023-04-02T02:46:28.548Z,4.13
2023-04-02T02:48:58.694Z,3.63
2023-04-02T02:51:29.640Z,3.33
2023-04-02T02:54:03.544Z,3.60
2023-04-02T02:56:33.522Z,2.45
2023-04-02T02:59:02.272Z,2.05
2023-04-02T03:01:33.393Z,2.35
2023-04-02T03:04:02.008Z,3.00
2023-04-02T03:06:29.800Z,2.10
2023-04-02T03:09:04.932Z,4.10
2023-04-02T03:11:39.724Z,2.65
2023-04-02T03:14:15.896Z,4.18
2023-04-02T03:16:48.311Z,4.85
2023-04-02T03:19:26.817Z,2.55
2023-04-02T03:22:03.026Z,4.28
2023-04-02T03:24:37.836Z,3.42
2023-04-02T03:27:14.800Z,3.35
2023-04-02T03:29:49.452Z,2.30
2023-04-02T03:32:24.053Z,2.55
2023-04-02T03:34:56.456Z,4.22
2023-04-02T03:37:29.574Z,3.47
2023-04-02T03:40:01.492Z,2.88
2023-04-02T03:42:38.235Z,5.63
2023-04-02T03:45:14.191Z,2.30
2023-04-02T03:47:47.701Z,3.70
2023-04-02T03:50:22.026Z,4.90
2023-04-02T03:52:50.172Z,6.07
2023-04-02T03:55:22.812Z,4.38
2023-04-02T03:58:00.751Z,3.38
2023-04-02T04:00:36.281Z,5.63
2023-04-02T04:03:11.481Z,2.40
2023-04-02T04:05:48.401Z,3.08
2023-04-02T04:08:19.673Z,6.85
2023-04-02T04:10:53.185Z,3.38
2023-04-02T04:13:32.386Z,4.00
2023-04-02T04:16:03.807Z,2.95
2023-04-02T04:18:37.925Z,2.30
2023-04-02T04:21:13.265Z,5.25
2023-04-02T04:23:50.626Z,4.70
2023-04-02T04:26:24.633Z,2.97
2023-04-02T04:29:05.531Z,3.50
2023-04-02T04:31:39.834Z,2.83
2023-04-02T04:34:16.144Z,2.33
2023-04-02T04:36:48.160Z,2.88
2023-04-02T04:39:23.850Z,3.00
2023-04-02T04:41:52.873Z,2.85
2023-04-02T04:44:24.435Z,5.63
2023-04-02T04:46:58.771Z,4.15
2023-04-02T04:49:33.776Z,3.72
2023-04-02T04:52:09.337Z,2.72
2023-04-02T04:54:40.093Z,3.70
2023-04-02T04:57:22.696Z,2.60
2023-04-02T04:59:58.579Z,4.18
2023-04-02T05:02:31.154Z,2.30
2023-04-02T05:05:01.610Z,2.60
2023-04-02T05:07:31.824Z,3.38
2023-04-02T05:10:05.296Z,2.40
2023-04-02T05:12:38.050Z,3.85
2023-04-02T05:15:11.586Z,5.93
2023-04-02T05:17:46.797Z,2.40
2023-04-02T05:20:22.490Z,2.92
2023-04-02T05:22:54.173Z,2.85
2023-04-02T05:25:25.931Z,2.50
2023-04-02T05:28:00.573Z,4.47
2023-04-02T05:30:46.652Z,7.55
2023-04-02T05:33:33.949Z,4.45
2023-04-02T05:36:06.017Z,3.67
2023-04-02T05:38:36.058Z,6.90
2023-04-02T05:41:08.580Z,3.97
2023-04-02T05:43:41.391Z,3.90
2023-04-02T05:48:49.363Z,3.95
2023-04-02T05:51:23.011Z,3.13
2023-04-02T05:53:56.106Z,3.08
2023-04-02T05:56:29.131Z,4.25
2023-04-02T05:59:07.598Z,3.47
2023-04-02T06:01:43.067Z,3.75
2023-04-02T06:04:21.630Z,4.20
2023-04-02T06:07:03.430Z,6.88
2023-04-02T06:09:40.721Z,3.22
2023-04-02T06:12:19.113Z,3.47
2023-04-02T06:14:47.240Z,3.30
2023-04-02T06:17:17.344Z,3.22
2023-04-02T06:19:45.841Z,5.53
2023-04-02T06:22:24.745Z,4.45
2023-04-02T06:24:57.408Z,3.45
2023-04-02T06:27:27.617Z,3.33
2023-04-02T06:30:02.109Z,4.18
2023-04-02T06:32:29.906Z,4.47
2023-04-02T06:34:58.329Z,4.35
2023-04-02T06:37:32.983Z,4.82
2023-04-02T06:40:01.774Z,3.90
2023-04-02T06:42:33.992Z,3.33
2023-04-02T06:45:02.084Z,4.72
2023-04-02T06:47:35.096Z,3.92
2023-04-02T06:50:09.118Z,5.90
2023-04-02T06:52:44.321Z,4.10
2023-04-02T06:55:29.912Z,6.15
2023-04-02T06:57:57.856Z,3.55
2023-04-02T07:00:31.525Z,3.58
2023-04-02T07:03:02.580Z,4.32
2023-04-02T07:05:30.644Z,3.15
2023-04-02T07:07:59.877Z,4.38
2023-04-02T07:10:27.615Z,3.80
2023-04-02T07:12:55.424Z,4.13
2023-04-02T07:15:25.472Z,3.20
2023-04-02T07:17:54.749Z,2.92
2023-04-02T07:20:28.837Z,4.43
2023-04-02T07:22:57.377Z,5.43
2023-04-02T07:25:27.843Z,6.45
2023-04-02T07:27:56.106Z,4.63
2023-04-02T07:30:24.386Z,3.55
2023-04-02T07:32:52.208Z,3.35
2023-04-02T07:35:19.972Z,6.50
2023-04-02T07:37:47.609Z,4.50
2023-04-02T07:40:18.945Z,4.95
2023-04-02T07:42:48.003Z,3.08
2023-04-02T07:45:16.126Z,3.95
2023-04-02T07:47:44.939Z,4.22
2023-04-02T07:50:13.442Z,3.80
2023-04-02T07:52:42.149Z,3.80
2023-04-02T07:55:12.572Z,3.80
2023-04-02T07:57:43.671Z,5.75
2023-04-02T08:00:15.479Z,4.10
2023-04-02T08:02:43.265Z,3.92
2023-04-02T08:05:11.634Z,6.80
2023-04-02T08:07:40.067Z,5.18
2023-04-02T08:10:09.949Z,4.50
2023-04-02T08:12:38.095Z,3.70
2023-04-02T08:15:08.030Z,4.25
2023-04-02T08:17:37.054Z,4.22
2023-04-02T08:20:09.134Z,3.97
2023-04-02T08:22:36.815Z,4.30
2023-04-02T08:25:04.763Z,3.58
2023-04-02T08:27:32.468Z,3.00
2023-04-02T08:30:00.148Z,3.65
2023-04-02T08:32:29.129Z,4.13
2023-04-02T08:34:58.256Z,4.10
2023-04-02T08:37:25.995Z,3.90
2023-04-02T08:39:53.771Z,3.28
2023-04-02T08:42:30.968Z,3.47
2023-04-02T08:45:23.618Z,5.13
2023-04-02T08:47:57.381Z,4.88
2023-04-02T08:50:32.791Z,4.07
2023-04-02T08:53:03.185Z,4.40
2023-04-02T08:55:37.518Z,3.85
2023-04-02T08:58:18.676Z,4.13
2023-04-02T09:00:49.899Z,6.03
2023-04-02T09:03:20.671Z,7.00
2023-04-02T09:05:52.646Z,3.83
2023-04-02T09:08:24.484Z,3.78
2023-04-02T09:10:59.254Z,5.33
2023-04-02T09:13:28.698Z,4.18
2023-04-02T09:16:02.195Z,4.80
2023-04-02T09:18:34.056Z,4.50
2023-04-02T09:21:09.898Z,4.00
2023-04-02T09:23:37.578Z,4.00
2023-04-02T09:26:22.864Z,4.28
2023-04-02T09:28:52.749Z,4.05
2023-04-02T09:31:27.868Z,4.10
2023-04-02T09:33:55.616Z,4.90
2023-04-02T09:36:38.602Z,4.68
2023-04-02T09:41:37.433Z,3.95
2023-04-02T09:44:31.182Z,4.53
2023-04-02T09:47:03.989Z,3.10
2023-04-02T09:49:34.048Z,2.90
2023-04-02T09:52:21.024Z,2.35
2023-04-02T09:55:06.290Z,2.10
2023-04-02T09:57:34.170Z,2.15
2023-04-02T10:00:21.851Z,2.25
2023-04-02T10:03:05.292Z,2.28
2023-04-02T10:05:39.966Z,3.13
2023-04-02T10:08:19.816Z,2.92
2023-04-02T10:10:51.720Z,2.60
2023-04-02T10:13:26.300Z,4.30
2023-04-02T10:16:00.046Z,1.80
2023-04-02T10:18:39.980Z,1.50
2023-04-02T10:21:09.210Z,1.50
2023-04-02T10:23:38.360Z,1.38
2023-04-02T10:26:21.231Z,0.70
2023-04-02T10:29:06.954Z,0.70
2023-04-02T10:31:41.578Z,0.73
2023-04-02T10:34:18.281Z,0.80
2023-04-02T10:36:51.955Z,0.80
2023-04-02T10:39:25.537Z,0.95
2023-04-02T10:41:57.789Z,0.60
2023-04-02T10:44:41.998Z,1.25
2023-04-02T10:47:18.928Z,1.10
2023-04-02T10:49:56.053Z,0.90
2023-04-02T10:52:30.336Z,0.95
2023-04-02T10:55:03.848Z,1.02
2023-04-02T10:57:38.019Z,0.88
2023-04-02T11:00:19.572Z,1.02
2023-04-02T11:02:52.199Z,0.80
2023-04-02T11:05:26.656Z,1.35
2023-04-02T11:07:59.184Z,1.20
2023-04-02T11:10:33.818Z,2.40
2023-04-02T11:13:08.235Z,1.60
2023-04-02T11:15:37.495Z,1.63
2023-04-02T11:18:05.639Z,1.70
2023-04-02T11:21:00.885Z,2.40
2023-04-02T11:23:32.674Z,1.98
2023-04-02T11:26:41.441Z,2.47
2023-04-02T11:29:23.242Z,2.40
2023-04-02T11:31:52.773Z,3.08
2023-04-02T11:35:05.968Z,3.20
2023-04-02T11:37:38.233Z,2.20
2023-04-02T11:40:53.035Z,2.90
2023-04-02T11:43:51.668Z,2.70
2023-04-02T11:46:39.697Z,2.97
2023-04-02T11:49:36.925Z,2.95
2023-04-02T11:52:12.263Z,3.50
2023-04-02T11:54:41.607Z,2.50
2023-04-02T11:57:22.640Z,2.72
2023-04-02T12:00:08.711Z,2.42
2023-04-02T12:02:49.916Z,2.88
2023-04-02T12:05:26.613Z,1.90
2023-04-02T12:08:08.936Z,2.13
2023-04-02T12:10:54.822Z,2.70
2023-04-02T12:13:50.029Z,2.17
2023-04-02T12:16:20.563Z,2.00
2023-04-02T12:18:53.963Z,2.05
2023-04-02T12:21:24.388Z,1.67
2023-04-02T12:23:55.516Z,1.60
2023-04-02T12:26:32.030Z,2.90
2023-04-02T12:29:25.650Z,1.50
2023-04-02T12:31:56.051Z,1.73
2023-04-02T12:34:26.133Z,1.67
2023-04-02T12:36:55.894Z,1.58
2023-04-02T12:39:25.978Z,2.15
2023-04-02T12:41:56.053Z,2.33
2023-04-02T12:44:25.727Z,2.45
2023-04-02T12:46:56.121Z,2.00
2023-04-02T12:49:36.890Z,1.90
2023-04-02T12:52:07.076Z,2.38
2023-04-02T12:54:39.241Z,1.92
2023-04-02T12:57:29.624Z,2.25
2023-04-02T12:59:58.687Z,3.65
2023-04-02T13:02:29.982Z,1.88
2023-04-02T13:05:00.923Z,5.35
2023-04-02T13:07:31.139Z,2.97
2023-04-02T13:10:00.983Z,2.00
2023-04-02T13:12:33.773Z,2.30
2023-04-02T13:17:43.971Z,3.05
2023-04-02T13:20:35.727Z,5.55
2023-04-02T13:23:24.598Z,2.40
2023-04-02T13:25:53.043Z,2.28
2023-04-02T13:28:21.128Z,2.85
2023-04-02T13:30:49.312Z,2.33
2023-04-02T13:33:19.122Z,2.88
2023-04-02T13:35:46.993Z,2.22
2023-04-02T13:38:14.941Z,5.53
2023-04-02T13:40:42.771Z,2.22
2023-04-02T13:43:18.333Z,3.75
2023-04-02T13:45:49.820Z,4.30
2023-04-02T13:48:19.180Z,1.98
2023-04-02T13:50:47.362Z,3.38
2023-04-02T13:53:23.124Z,4.25
2023-04-02T13:55:52.090Z,2.97
2023-04-02T13:58:20.077Z,2.20
2023-04-02T14:00:48.298Z,2.97
2023-04-02T14:03:22.067Z,2.47
2023-04-02T14:05:58.655Z,2.42
2023-04-02T14:08:41.341Z,2.83
2023-04-02T14:11:24.930Z,4.35
2023-04-02T14:14:14.077Z,3.33
2023-04-02T14:16:56.805Z,2.92
2023-04-02T14:19:50.969Z,2.47
2023-04-02T14:22:32.498Z,5.32
2023-04-02T14:25:10.012Z,2.17
2023-04-02T14:27:46.706Z,2.38
2023-04-02T14:30:23.018Z,2.35
2023-04-02T14:33:01.818Z,2.67
2023-04-02T14:35:36.511Z,3.25
2023-04-02T14:38:14.124Z,2.97
2023-04-02T14:40:49.440Z,3.10
2023-04-02T14:43:23.491Z,3.65
2023-04-02T14:46:01.683Z,3.50
2023-04-02T14:48:46.191Z,8.68
2023-04-02T14:51:21.362Z,3.95
2023-04-02T14:53:55.738Z,2.90
2023-04-02T14:56:25.679Z,3.53
2023-04-02T14:59:03.542Z,2.55
2023-04-02T15:01:37.262Z,4.22
2023-04-02T15:04:13.068Z,3.72
2023-04-02T15:06:45.672Z,2.92
2023-04-02T15:09:19.044Z,3.70
2023-04-02T15:11:51.444Z,4.18
2023-04-02T15:14:22.608Z,4.45
2023-04-02T15:16:51.902Z,5.32
2023-04-02T15:19:21.870Z,4.82
2023-04-02T15:22:09.862Z,3.83
2023-04-02T15:24:45.021Z,3.22
2023-04-02T15:27:29.248Z,3.53
2023-04-02T15:30:03.913Z,4.55
2023-04-02T15:32:37.944Z,3.15
2023-04-02T15:35:20.310Z,5.93
2023-04-02T15:38:00.771Z,3.33
2023-04-02T15:40:40.179Z,4.47
2023-04-02T15:43:17.634Z,4.18
2023-04-02T15:45:52.471Z,5.28
2023-04-02T15:48:35.510Z,4.35
2023-04-02T15:51:17.718Z,3.65
2023-04-02T15:53:56.873Z,3.73
2023-04-02T15:56:31.410Z,3.90
2023-04-02T15:59:15.951Z,4.38
2023-04-02T16:01:55.094Z,5.28
2023-04-02T16:04:41.387Z,6.60
2023-04-02T16:07:30.320Z,5.75
2023-04-02T16:10:08.535Z,6.25
2023-04-02T16:12:38.234Z,5.85
2023-04-02T16:15:15.829Z,5.28
2023-04-02T16:17:47.581Z,6.53
2023-04-02T16:20:23.864Z,5.38
2023-04-02T16:23:00.953Z,5.80
2023-04-02T16:25:37.229Z,5.65
2023-04-02T16:28:15.530Z,6.22
2023-04-02T16:30:51.964Z,5.45
2023-04-02T16:33:41.505Z,5.15
2023-04-02T16:36:24.310Z,6.15
2023-04-02T16:39:01.001Z,7.57
2023-04-02T16:41:45.935Z,6.82
2023-04-02T16:44:25.901Z,8.95
2023-04-02T16:47:03.683Z,6.03
2023-04-02T16:49:37.425Z,6.43
2023-04-02T16:52:21.731Z,5.70
2023-04-02T16:55:02.374Z,5.72
2023-04-02T16:57:43.655Z,6.13
2023-04-02T17:00:21.932Z,7.60
2023-04-02T17:03:04.975Z,6.82
2023-04-02T17:08:18.279Z,7.03
2023-04-02T17:10:52.631Z,6.32
2023-04-02T17:13:28.043Z,8.63
2023-04-02T17:16:04.668Z,5.85
2023-04-02T17:18:34.171Z,7.22
2023-04-02T17:21:06.577Z,6.70
2023-04-02T17:23:55.245Z,5.45
2023-04-02T17:26:27.128Z,5.60
2023-04-02T17:28:58.503Z,6.65
2023-04-02T17:31:30.744Z,5.60
2023-04-02T17:33:58.659Z,8.32
2023-04-02T17:36:40.930Z,5.22
2023-04-02T17:39:21.277Z,7.88
2023-04-02T17:41:53.569Z,5.88
2023-04-02T17:44:35.942Z,5.82
2023-04-02T17:47:12.655Z,5.63
2023-04-02T17:49:49.753Z,6.00
2023-04-02T17:52:24.463Z,6.85
2023-04-02T17:55:03.198Z,6.47
2023-04-02T17:57:46.148Z,5.50
2023-04-02T18:00:26.625Z,6.50
2023-04-02T18:03:07.520Z,6.32
2023-04-02T18:05:40.067Z,6.93
2023-04-02T18:08:18.802Z,7.13
2023-04-02T18:11:00.223Z,6.78
2023-04-02T18:13:34.905Z,5.75
2023-04-02T18:16:17.561Z,5.68
2023-04-02T18:19:10.112Z,5.25
2023-04-02T18:21:44.285Z,4.78
2023-04-02T18:24:29.207Z,6.47
2023-04-02T18:27:10.209Z,7.75
2023-04-02T18:29:44.578Z,4.88
2023-04-02T18:32:35.571Z,6.53
2023-04-02T18:35:14.037Z,5.28
2023-04-02T18:37:57.564Z,4.95
2023-04-02T18:40:43.263Z,5.07
2023-04-02T18:43:26.668Z,4.82
2023-04-02T18:45:59.901Z,5.10
2023-04-02T18:48:42.069Z,4.93
2023-04-02T18:51:16.815Z,4.85
2023-04-02T18:53:45.389Z,6.00
2023-04-02T18:56:17.050Z,4.82
2023-04-02T18:58:56.833Z,4.45
2023-04-02T19:01:29.013Z,5.20
2023-04-02T19:04:03.796Z,4.20
2023-04-02T19:06:37.360Z,6.07
2023-04-02T19:09:12.732Z,5.07
2023-04-02T19:11:40.513Z,3.85
2023-04-02T19:14:13.517Z,4.22
2023-04-02T19:16:58.809Z,4.60
2023-04-02T19:19:30.883Z,4.30
2023-04-02T19:22:23.747Z,3.67
2023-04-02T19:25:08.775Z,5.28
2023-04-02T19:27:51.314Z,4.45
2023-04-02T19:30:39.997Z,4.38
2023-04-02T19:33:21.136Z,3.67
2023-04-02T19:35:56.816Z,3.80
2023-04-02T19:38:44.815Z,4.95
2023-04-02T19:41:19.629Z,8.38
2023-04-02T19:43:47.466Z,4.45
2023-04-02T19:46:15.615Z,6.05
2023-04-02T19:48:51.891Z,7.00
2023-04-02T19:51:21.398Z,4.35
2023-04-02T19:53:49.080Z,4.93
2023-04-02T19:56:16.883Z,3.55
2023-04-02T19:58:44.607Z,4.55
2023-04-02T20:01:12.294Z,5.43
2023-04-02T20:03:40.071Z,6.30
2023-04-02T20:06:07.789Z,4.03
2023-04-02T20:08:37.134Z,5.18
2023-04-02T20:11:05.091Z,3.60
2023-04-02T20:13:32.854Z,4.28
2023-04-02T20:16:01.728Z,3.92
2023-04-02T20:18:30.124Z,3.55
2023-04-02T20:20:58.026Z,4.57
2023-04-02T20:23:25.902Z,3.38
2023-04-02T20:25:57.713Z,6.22
2023-04-02T20:28:27.075Z,5.68
2023-04-02T20:30:54.933Z,3.30
2023-04-02T20:33:24.993Z,4.13
2023-04-02T20:35:54.603Z,4.97
2023-04-02T20:38:22.305Z,9.38
2023-04-02T20:40:52.960Z,8.90
2023-04-02T20:43:22.571Z,6.88
2023-04-02T20:45:57.454Z,5.18
2023-04-02T20:48:27.445Z,3.53
2023-04-02T20:50:55.523Z,4.65
2023-04-02T20:53:23.387Z,4.57
2023-04-02T20:55:51.122Z,3.70
2023-04-02T20:58:20.254Z,4.88
2023-04-02T21:00:49.262Z,5.35
2023-04-02T21:03:16.995Z,4.65
2023-04-02T21:05:45.410Z,4.18
2023-04-02T21:08:13.552Z,6.60
2023-04-02T21:10:41.720Z,7.60
2023-04-02T21:13:09.338Z,4.60
2023-04-02T21:15:42.978Z,8.32
2023-04-02T21:18:12.167Z,8.55
2023-04-02T21:20:39.894Z,4.65
2023-04-02T21:23:07.573Z,6.30
2023-04-02T21:25:35.530Z,5.57
2023-04-02T21:28:03.840Z,3.05
2023-04-02T21:30:33.007Z,3.17
2023-04-02T21:33:00.926Z,4.22
2023-04-02T21:35:29.959Z,5.95
2023-04-02T21:37:57.631Z,5.45
2023-04-02T21:40:25.300Z,4.70
2023-04-02T21:42:52.942Z,4.93
2023-04-02T21:45:20.672Z,3.38
2023-04-02T21:47:48.439Z,4.85
2023-04-02T21:50:16.244Z,5.25
2023-04-02T21:52:45.279Z,4.15
2023-04-02T21:55:12.979Z,3.65
2023-04-02T21:57:40.777Z,4.88
2023-04-02T22:00:12.340Z,5.60
2023-04-02T22:02:40.409Z,4.82
2023-04-02T22:05:08.825Z,5.22
2023-04-02T22:07:36.570Z,4.30
2023-04-02T22:10:06.099Z,5.22
2023-04-02T22:12:33.775Z,3.72
2023-04-02T22:15:01.483Z,4.15
2023-04-02T22:17:29.140Z,3.78
2023-04-02T22:19:56.978Z,4.25
2023-04-02T22:22:25.220Z,4.47
2023-04-02T22:24:52.873Z,4.57
2023-04-02T22:27:21.859Z,3.85
2023-04-02T22:29:49.492Z,5.55
2023-04-02T22:32:17.215Z,4.82
2023-04-02T22:34:45.761Z,4.28
2023-04-02T22:37:13.546Z,8.30
2023-04-02T22:39:41.288Z,4.05
2023-04-02T22:42:08.895Z,4.15
2023-04-02T22:44:37.964Z,7.57
2023-04-02T22:47:05.674Z,5.22
2023-04-02T22:49:33.338Z,6.18
2023-04-02T22:52:01.528Z,4.30
2023-04-02T22:54:29.268Z,5.70
2023-04-02T22:56:56.967Z,4.32
2023-04-02T22:59:24.685Z,3.55
2023-04-02T23:01:53.748Z,7.05
2023-04-02T23:04:21.769Z,5.28
2023-04-02T23:06:49.527Z,4.32
2023-04-02T23:09:17.286Z,3.17
2023-04-02T23:11:45.361Z,3.25
2023-04-02T23:14:13.089Z,7.18
2023-04-02T23:16:40.827Z,3.58
2023-04-02T23:19:10.160Z,3.80
2023-04-02T23:21:37.860Z,3.75
2023-04-02T23:24:05.836Z,10.63
2023-04-02T23:26:33.699Z,4.07
2023-04-02T23:29:02.355Z,3.75
2023-04-02T23:31:33.496Z,3.22
2023-04-02T23:34:02.819Z,4.38
2023-04-02T23:36:33.306Z,3.03
2023-04-02T23:39:03.202Z,4.30
2023-04-02T23:41:32.022Z,3.25
2023-04-02T23:44:00.348Z,4.22
2023-04-02T23:46:29.063Z,4.82
2023-04-02T23:48:57.236Z,3.63
2023-04-02T23:51:25.912Z,4.35
2023-04-02T23:53:56.555Z,4.78
2023-04-02T23:56:24.718Z,4.00
2023-04-02T23:58:52.831Z,3.90
